createdAt,value
2022-09-21T00:00:01.337Z,5.68
2022-09-21T00:05:03.982Z,4.32
2022-09-21T00:10:07.368Z,5.30
2022-09-21T00:15:12.453Z,4.65
2022-09-21T00:20:17.180Z,4.05
2022-09-21T00:25:20.732Z,3.90
2022-09-21T00:30:24.705Z,4.95
2022-09-21T00:35:27.378Z,3.13
2022-09-21T00:40:30.718Z,7.50
2022-09-21T00:45:35.053Z,6.10
2022-09-21T00:50:43.892Z,3.00
2022-09-21T00:55:51.236Z,6.80
2022-09-21T01:00:56.264Z,4.15
2022-09-21T01:05:58.731Z,4.50
2022-09-21T01:11:23.336Z,4.45
2022-09-21T01:16:34.419Z,5.00
2022-09-21T01:21:45.899Z,6.03
2022-09-21T01:27:15.141Z,5.07
2022-09-21T01:32:24.104Z,3.95
2022-09-21T01:37:36.166Z,5.63
2022-09-21T01:42:42.230Z,6.40
2022-09-21T01:47:49.582Z,4.53
2022-09-21T01:52:59.397Z,5.53
2022-09-21T01:58:08.100Z,6.05
2022-09-21T02:03:17.793Z,4.55
2022-09-21T02:08:20.431Z,5.65
2022-09-21T02:13:27.631Z,5.47
2022-09-21T02:18:41.947Z,5.53
2022-09-21T02:23:52.823Z,7.68
2022-09-21T02:29:01.501Z,6.55
2022-09-21T02:34:14.332Z,4.53
2022-09-21T02:39:20.258Z,7.63
2022-09-21T02:44:33.656Z,4.40
2022-09-21T02:49:43.889Z,5.97
2022-09-21T02:54:50.630Z,6.72
2022-09-21T02:59:53.641Z,6.43
2022-09-21T03:04:57.797Z,5.55
2022-09-21T03:10:00.272Z,8.13
2022-09-21T03:15:03.019Z,8.07
2022-09-21T03:20:08.134Z,5.70
2022-09-21T03:25:12.317Z,7.32
2022-09-21T03:30:15.090Z,5.78
2022-09-21T03:35:19.469Z,5.53
2022-09-21T03:40:22.196Z,3.83
2022-09-21T03:45:24.933Z,7.32
2022-09-21T03:50:30.046Z,6.70
2022-09-21T03:55:33.253Z,9.60
2022-09-21T04:00:36.427Z,6.13
2022-09-21T04:05:41.199Z,7.13
2022-09-21T04:10:44.185Z,7.32
2022-09-21T04:15:46.650Z,6.65
2022-09-21T04:20:50.512Z,10.15
2022-09-21T04:25:55.798Z,7.57
2022-09-21T04:30:58.338Z,9.05
2022-09-21T04:36:02.616Z,8.35
2022-09-21T04:41:05.551Z,5.88
2022-09-21T04:46:09.508Z,7.05
2022-09-21T04:51:14.945Z,7.07
2022-09-21T04:56:18.206Z,6.72
2022-09-21T05:01:20.864Z,7.70
2022-09-21T05:06:24.810Z,7.20
2022-09-21T05:11:27.902Z,7.63
2022-09-21T05:16:30.390Z,5.80
2022-09-21T05:21:34.239Z,6.03
2022-09-21T05:26:36.680Z,10.80
2022-09-21T05:31:47.013Z,6.85
2022-09-21T05:36:59.542Z,5.93
2022-09-21T05:42:03.124Z,8.30
2022-09-21T05:47:17.034Z,9.10
2022-09-21T05:52:29.318Z,8.60
2022-09-21T05:57:45.277Z,8.30
2022-09-21T06:03:30.074Z,7.45
2022-09-21T06:08:33.852Z,5.68
2022-09-21T06:13:37.439Z,10.10
2022-09-21T06:18:40.858Z,4.97
2022-09-21T06:23:44.814Z,4.88
2022-09-21T06:28:47.257Z,4.85
2022-09-21T06:33:49.698Z,5.32
2022-09-21T06:38:53.949Z,5.85
2022-09-21T06:43:57.254Z,3.47
2022-09-21T06:48:59.816Z,7.07
2022-09-21T06:54:03.985Z,6.15
2022-09-21T06:59:06.555Z,5.63
2022-09-21T07:04:09.587Z,5.38
2022-09-21T07:14:35.959Z,5.95
2022-09-21T07:19:38.491Z,6.10
2022-09-21T07:24:42.257Z,5.10
2022-09-21T07:29:44.972Z,5.50
2022-09-21T07:34:47.750Z,6.93
2022-09-21T07:39:51.952Z,7.75
2022-09-21T07:45:03.132Z,3.95
2022-09-21T07:50:07.495Z,3.85
2022-09-21T07:55:11.285Z,4.22
2022-09-21T08:00:14.354Z,4.27
2022-09-21T08:05:17.094Z,3.75
2022-09-21T08:10:20.937Z,7.95
2022-09-21T08:15:47.469Z,5.97
2022-09-21T08:20:54.317Z,3.20
2022-09-21T08:26:01.557Z,3.13
2022-09-21T08:31:08.309Z,6.53
2022-09-21T08:36:11.250Z,5.47
2022-09-21T08:41:19.899Z,3.92
2022-09-21T08:46:25.927Z,5.80
2022-09-21T08:51:33.717Z,6.57
2022-09-21T08:57:03.495Z,5.38
2022-09-21T09:02:09.092Z,7.00
2022-09-21T09:07:27.045Z,4.88
2022-09-21T09:12:41.350Z,4.70
2022-09-21T09:17:53.716Z,3.85
2022-09-21T09:23:04.728Z,4.30
2022-09-21T09:28:23.078Z,5.35
2022-09-21T09:33:29.013Z,3.70
2022-09-21T09:38:38.152Z,4.75
2022-09-21T09:43:58.477Z,6.32
2022-09-21T09:49:20.561Z,5.22
2022-09-21T09:54:28.862Z,3.95
2022-09-21T09:59:37.027Z,3.83
2022-09-21T10:04:56.019Z,2.88
2022-09-21T10:09:58.873Z,3.58
2022-09-21T10:15:03.808Z,5.45
2022-09-21T10:20:08.499Z,2.92
2022-09-21T10:25:16.702Z,4.50
2022-09-21T10:30:35.837Z,3.90
2022-09-21T10:35:50.092Z,4.95
2022-09-21T10:40:52.685Z,6.95
2022-09-21T10:45:58.153Z,4.77
2022-09-21T10:51:00.781Z,3.17
2022-09-21T10:56:21.886Z,4.80
2022-09-21T11:01:29.872Z,4.90
2022-09-21T11:06:40.186Z,3.05
2022-09-21T11:11:51.376Z,2.50
2022-09-21T11:16:59.112Z,4.65
2022-09-21T11:22:09.059Z,6.38
2022-09-21T11:27:16.737Z,2.60
2022-09-21T11:32:34.891Z,4.43
2022-09-21T11:37:51.156Z,2.70
2022-09-21T11:43:09.599Z,5.07
2022-09-21T11:48:28.362Z,2.53
2022-09-21T11:53:42.065Z,5.10
2022-09-21T11:58:53.177Z,6.35
2022-09-21T12:04:16.910Z,4.47
2022-09-21T12:09:40.943Z,2.28
2022-09-21T12:14:51.553Z,2.08
2022-09-21T12:20:04.532Z,3.63
2022-09-21T12:25:17.067Z,3.75
2022-09-21T12:30:22.267Z,3.10
2022-09-21T12:35:36.508Z,3.28
2022-09-21T12:40:43.515Z,2.47
2022-09-21T12:45:53.268Z,3.50
2022-09-21T12:51:05.844Z,2.63
2022-09-21T12:56:14.712Z,3.05
2022-09-21T13:01:28.220Z,3.22
2022-09-21T13:07:03.948Z,2.20
2022-09-21T13:12:12.025Z,2.80
2022-09-21T13:17:23.145Z,2.60
2022-09-21T13:22:31.232Z,1.52
2022-09-21T13:28:04.542Z,1.27
2022-09-21T13:33:32.378Z,2.75
2022-09-21T13:38:58.517Z,5.57
2022-09-21T13:44:05.225Z,2.92
2022-09-21T13:49:19.516Z,2.60
2022-09-21T13:54:26.813Z,2.28
2022-09-21T13:59:29.493Z,1.85
2022-09-21T14:04:37.108Z,1.67
2022-09-21T14:09:44.330Z,2.75
2022-09-21T14:15:12.895Z,1.33
2022-09-21T14:20:30.819Z,4.95
2022-09-21T14:25:52.107Z,2.95
2022-09-21T14:31:00.301Z,2.10
2022-09-21T14:36:09.078Z,5.85
2022-09-21T14:41:19.732Z,2.65
2022-09-21T14:46:38.443Z,2.67
2022-09-21T14:51:55.869Z,2.92
2022-09-21T14:57:19.588Z,2.08
2022-09-21T15:02:24.231Z,1.38
2022-09-21T15:08:00.264Z,2.22
2022-09-21T15:13:12.725Z,1.95
2022-09-21T15:18:21.544Z,1.83
2022-09-21T15:23:26.477Z,3.20
2022-09-21T15:29:04.968Z,5.75
2022-09-21T15:34:02.970Z,4.28
2022-09-21T15:39:06.698Z,2.22
2022-09-21T15:44:16.674Z,1.33
2022-09-21T15:49:21.951Z,2.15
2022-09-21T15:54:32.263Z,1.48
2022-09-21T15:59:36.867Z,1.33
2022-09-21T16:04:49.345Z,1.95
2022-09-21T16:09:53.721Z,2.40
2022-09-21T16:15:04.162Z,2.67
2022-09-21T16:20:17.351Z,1.00
2022-09-21T16:25:27.371Z,2.00
2022-09-21T16:30:44.704Z,1.90
2022-09-21T16:35:47.494Z,2.38
2022-09-21T16:40:51.809Z,1.65
2022-09-21T16:45:58.115Z,1.70
2022-09-21T16:51:01.187Z,1.45
2022-09-21T16:56:05.031Z,5.38
2022-09-21T17:01:14.064Z,2.03
2022-09-21T17:06:19.780Z,2.05
2022-09-21T17:11:22.291Z,3.95
2022-09-21T17:16:33.876Z,2.15
2022-09-21T17:21:36.648Z,1.27
2022-09-21T17:26:39.371Z,3.00
2022-09-21T17:31:43.148Z,2.58
2022-09-21T17:36:47.021Z,2.75
2022-09-21T17:41:58.230Z,3.03
2022-09-21T17:47:09.886Z,2.55
2022-09-21T17:52:39.000Z,3.67
2022-09-21T17:57:52.143Z,3.78
2022-09-21T18:02:57.154Z,7.97
2022-09-21T18:08:00.593Z,6.82
2022-09-21T18:13:24.052Z,12.13
2022-09-21T18:18:42.702Z,12.60
2022-09-21T18:23:56.115Z,10.93
2022-09-21T18:28:59.314Z,12.40
2022-09-21T18:34:22.220Z,10.73
2022-09-21T18:39:34.670Z,8.88
2022-09-21T18:44:44.246Z,7.30
2022-09-21T18:49:56.530Z,6.53
2022-09-21T18:54:59.245Z,9.88
2022-09-21T19:00:02.497Z,6.80
2022-09-21T19:05:07.623Z,7.82
2022-09-21T19:10:19.420Z,6.45
2022-09-21T19:15:55.559Z,5.18
2022-09-21T19:21:02.249Z,7.53
2022-09-21T19:26:13.226Z,5.88
2022-09-21T19:31:18.885Z,8.70
2022-09-21T19:36:24.356Z,5.50
2022-09-21T19:41:43.410Z,8.35
2022-09-21T19:46:58.003Z,6.63
2022-09-21T19:52:05.629Z,5.18
2022-09-21T19:57:31.709Z,7.38
2022-09-21T20:02:38.528Z,5.28
2022-09-21T20:07:50.228Z,6.72
2022-09-21T20:13:06.708Z,8.02
2022-09-21T20:18:23.329Z,5.90
2022-09-21T20:23:30.557Z,6.82
2022-09-21T20:28:33.565Z,9.18
2022-09-21T20:33:36.598Z,8.75
2022-09-21T20:38:40.613Z,9.00
2022-09-21T20:43:43.645Z,6.53
2022-09-21T20:48:46.131Z,7.63
2022-09-21T20:53:51.637Z,5.07
2022-09-21T20:58:54.562Z,5.38
2022-09-21T21:04:01.662Z,5.07
2022-09-21T21:09:06.042Z,7.25
2022-09-21T21:14:08.612Z,6.78
2022-09-21T21:19:11.448Z,9.65
2022-09-21T21:24:33.109Z,7.90
2022-09-21T21:29:35.557Z,8.75
2022-09-21T21:34:38.374Z,7.75
2022-09-21T21:39:42.507Z,6.75
2022-09-21T21:44:46.890Z,5.85
2022-09-21T21:49:49.468Z,3.17
2022-09-21T21:54:53.498Z,9.98
2022-09-21T21:59:55.982Z,3.47
2022-09-21T22:04:58.640Z,10.25
2022-09-21T22:10:03.001Z,8.48
2022-09-21T22:15:06.295Z,5.35
2022-09-21T22:20:10.253Z,8.35
2022-09-21T22:25:14.515Z,7.60
2022-09-21T22:30:17.237Z,7.75
2022-09-21T22:35:19.920Z,4.80
2022-09-21T22:40:23.883Z,8.00
2022-09-21T22:45:26.931Z,5.22
2022-09-21T22:50:30.226Z,7.55
2022-09-21T22:55:34.378Z,7.25
2022-09-21T23:00:36.990Z,9.18
2022-09-21T23:05:39.511Z,6.32
2022-09-21T23:10:43.532Z,3.92
2022-09-21T23:15:46.186Z,4.97
2022-09-21T23:20:57.254Z,8.18
2022-09-21T23:26:06.444Z,5.65
2022-09-21T23:31:11.898Z,7.22
2022-09-21T23:36:16.968Z,6.95
2022-09-21T23:41:23.399Z,5.47
2022-09-21T23:46:28.047Z,6.47
2022-09-21T23:51:30.943Z,6.85
2022-09-21T23:56:35.064Z,5.18
